createdAt,value
2022-11-09T00:01:33.543Z,8.94
2022-11-09T00:04:04.015Z,8.85
2022-11-09T00:06:34.473Z,8.96
2022-11-09T00:09:07.434Z,8.88
2022-11-09T00:11:39.478Z,8.72
2022-11-09T00:14:06.658Z,8.72
2022-11-09T00:16:33.546Z,8.78
2022-11-09T00:19:00.283Z,8.94
2022-11-09T00:21:27.440Z,9.07
2022-11-09T00:23:54.907Z,9.12
2022-11-09T00:26:24.241Z,9.02
2022-11-09T00:28:51.692Z,8.99
2022-11-09T00:31:22.120Z,8.82
2022-11-09T00:34:17.081Z,8.70
2022-11-09T00:36:43.961Z,8.78
2022-11-09T00:39:11.063Z,8.68
2022-11-09T00:41:39.054Z,8.75
2022-11-09T00:44:09.698Z,8.76
2022-11-09T00:46:39.055Z,8.78
2022-11-09T00:49:06.354Z,8.92
2022-11-09T00:51:33.132Z,8.67
2022-11-09T00:54:08.258Z,8.72
2022-11-09T00:56:35.143Z,8.77
2022-11-09T00:59:01.862Z,8.79
2022-11-09T01:01:31.698Z,8.87
2022-11-09T01:04:00.718Z,8.93
2022-11-09T01:06:30.120Z,8.72
2022-11-09T01:09:02.798Z,8.67
2022-11-09T01:11:29.766Z,8.81
2022-11-09T01:14:00.031Z,8.81
2022-11-09T01:16:27.397Z,8.72
2022-11-09T01:18:58.512Z,8.85
2022-11-09T01:21:27.291Z,8.74
2022-11-09T01:24:01.827Z,8.68
2022-11-09T01:26:28.959Z,8.75
2022-11-09T01:28:58.027Z,8.71
2022-11-09T01:31:27.226Z,8.68
2022-11-09T01:33:57.390Z,8.61
2022-11-09T01:36:24.939Z,8.62
2022-11-09T01:38:52.238Z,8.64
2022-11-09T01:41:31.662Z,8.56
2022-11-09T01:44:10.372Z,8.60
2022-11-09T01:46:48.481Z,8.40
2022-11-09T01:49:24.391Z,8.43
2022-11-09T01:52:04.363Z,8.30
2022-11-09T01:54:37.685Z,8.26
2022-11-09T01:57:09.065Z,8.21
2022-11-09T01:59:43.531Z,8.13
2022-11-09T02:02:11.118Z,8.29
2022-11-09T02:04:43.609Z,8.24
2022-11-09T02:07:10.468Z,8.14
2022-11-09T02:09:46.198Z,8.11
2022-11-09T02:12:13.024Z,8.17
2022-11-09T02:14:41.484Z,8.02
2022-11-09T02:17:08.097Z,7.94
2022-11-09T02:19:34.639Z,7.98
2022-11-09T02:22:04.257Z,7.91
2022-11-09T02:24:37.021Z,7.81
2022-11-09T02:27:06.139Z,7.76
2022-11-09T02:29:37.405Z,8.04
2022-11-09T02:32:09.827Z,8.02
2022-11-09T02:34:38.651Z,7.98
2022-11-09T02:37:08.019Z,7.87
2022-11-09T02:39:37.226Z,7.94
2022-11-09T02:42:10.255Z,7.91
2022-11-09T02:44:43.641Z,8.07
2022-11-09T02:47:10.241Z,7.99
2022-11-09T02:49:39.126Z,8.15
2022-11-09T02:52:05.663Z,8.00
2022-11-09T02:54:37.852Z,7.87
2022-11-09T02:57:07.095Z,7.81
2022-11-09T02:59:33.542Z,7.79
2022-11-09T03:02:00.018Z,7.90
2022-11-09T03:04:26.555Z,7.92
2022-11-09T03:06:53.111Z,7.73
2022-11-09T03:09:20.006Z,7.70
2022-11-09T03:11:50.544Z,7.92
2022-11-09T03:14:17.385Z,7.95
2022-11-09T03:16:50.532Z,7.83
2022-11-09T03:19:19.904Z,7.66
2022-11-09T03:21:48.476Z,7.71
2022-11-09T03:24:14.966Z,7.65
2022-11-09T03:26:41.478Z,7.70
2022-11-09T03:29:08.633Z,7.80
2022-11-09T03:31:35.127Z,7.73
2022-11-09T03:34:01.623Z,7.73
2022-11-09T03:36:28.152Z,7.67
2022-11-09T03:38:54.720Z,7.81
2022-11-09T03:41:21.273Z,7.85
2022-11-09T03:43:51.341Z,7.87
2022-11-09T03:46:20.810Z,7.87
2022-11-09T03:48:49.655Z,7.90
2022-11-09T03:51:18.500Z,7.78
2022-11-09T03:53:47.335Z,7.85
2022-11-09T03:56:13.863Z,7.70
2022-11-09T03:58:42.499Z,7.53
2022-11-09T04:01:08.990Z,7.56
2022-11-09T04:03:35.513Z,7.58
2022-11-09T04:06:04.256Z,7.67
2022-11-09T04:08:31.047Z,7.70
2022-11-09T04:10:57.612Z,7.62
2022-11-09T04:13:29.348Z,7.68
2022-11-09T04:15:55.879Z,7.63
2022-11-09T04:18:24.691Z,7.87
2022-11-09T04:20:51.321Z,7.93
2022-11-09T04:23:18.130Z,7.97
2022-11-09T04:25:45.009Z,7.88
2022-11-09T04:28:14.956Z,7.71
2022-11-09T04:30:44.518Z,7.55
2022-11-09T04:33:11.002Z,7.71
2022-11-09T04:35:38.433Z,7.74
2022-11-09T04:38:12.692Z,7.71
2022-11-09T04:40:39.468Z,7.84
2022-11-09T04:43:07.683Z,7.85
2022-11-09T04:45:38.955Z,7.98
2022-11-09T04:48:09.591Z,7.88
2022-11-09T04:50:36.171Z,7.82
2022-11-09T04:53:11.990Z,7.90
2022-11-09T04:55:39.910Z,7.92
2022-11-09T04:58:06.743Z,7.95
2022-11-09T05:00:36.162Z,7.63
2022-11-09T05:03:06.698Z,7.59
2022-11-09T05:05:37.372Z,7.62
2022-11-09T05:08:07.701Z,7.59
2022-11-09T05:10:37.232Z,7.46
2022-11-09T05:13:09.972Z,7.63
2022-11-09T05:15:39.832Z,7.56
2022-11-09T05:18:10.362Z,7.47
2022-11-09T05:20:37.407Z,7.58
2022-11-09T05:23:23.438Z,7.61
2022-11-09T05:25:50.265Z,7.56
2022-11-09T05:28:17.232Z,7.70
2022-11-09T05:30:45.982Z,7.59
2022-11-09T05:33:12.546Z,7.63
2022-11-09T05:35:41.269Z,7.63
2022-11-09T05:38:07.803Z,7.65
2022-11-09T05:40:34.765Z,7.59
2022-11-09T05:43:01.263Z,7.62
2022-11-09T05:45:41.968Z,7.64
2022-11-09T05:48:11.371Z,7.70
2022-11-09T05:50:38.631Z,7.61
2022-11-09T05:53:05.521Z,7.51
2022-11-09T05:55:32.038Z,7.43
2022-11-09T05:57:58.726Z,7.45
2022-11-09T06:00:25.426Z,7.61
2022-11-09T06:02:54.648Z,7.51
2022-11-09T06:05:21.666Z,7.62
2022-11-09T06:07:48.369Z,7.68
2022-11-09T06:10:17.741Z,7.67
2022-11-09T06:12:44.827Z,7.48
2022-11-09T06:15:13.569Z,7.37
2022-11-09T06:17:42.651Z,7.49
2022-11-09T06:20:12.096Z,7.50
2022-11-09T06:22:38.907Z,7.38
2022-11-09T06:25:05.658Z,7.28
2022-11-09T06:27:34.618Z,7.29
2022-11-09T06:30:01.126Z,7.38
2022-11-09T06:32:31.385Z,7.53
2022-11-09T06:34:57.908Z,7.51
2022-11-09T06:37:27.359Z,7.55
2022-11-09T06:39:56.159Z,7.60
2022-11-09T06:42:22.762Z,7.45
2022-11-09T06:44:51.976Z,7.44
2022-11-09T06:47:20.749Z,7.19
2022-11-09T06:49:47.408Z,7.30
2022-11-09T06:52:16.208Z,7.34
2022-11-09T06:54:42.718Z,7.31
2022-11-09T06:57:14.036Z,7.31
2022-11-09T06:59:40.531Z,7.20
2022-11-09T07:02:07.079Z,7.27
2022-11-09T07:04:33.595Z,7.72
2022-11-09T07:07:00.449Z,7.43
2022-11-09T07:09:27.211Z,7.52
2022-11-09T07:11:53.713Z,7.47
2022-11-09T07:14:22.461Z,7.46
2022-11-09T07:16:51.294Z,7.54
2022-11-09T07:19:20.034Z,7.53
2022-11-09T07:21:46.561Z,7.54
2022-11-09T07:24:17.854Z,7.41
2022-11-09T07:26:44.357Z,7.37
2022-11-09T07:29:10.906Z,7.37
2022-11-09T07:31:37.519Z,7.58
2022-11-09T07:34:05.254Z,7.71
2022-11-09T07:36:36.848Z,7.73
2022-11-09T07:39:04.156Z,7.42
2022-11-09T07:41:34.643Z,7.43
2022-11-09T07:44:01.671Z,7.52
2022-11-09T07:46:28.269Z,7.67
2022-11-09T07:48:54.803Z,7.83
2022-11-09T07:51:23.604Z,7.87
2022-11-09T07:53:52.391Z,7.91
2022-11-09T07:56:18.985Z,7.73
2022-11-09T07:58:45.541Z,7.80
2022-11-09T08:01:12.217Z,7.68
2022-11-09T08:03:41.154Z,7.73
2022-11-09T08:06:14.249Z,7.90
2022-11-09T08:08:43.720Z,7.78
2022-11-09T08:11:10.250Z,7.85
2022-11-09T08:13:36.934Z,8.00
2022-11-09T08:16:04.416Z,8.06
2022-11-09T08:18:31.004Z,7.87
2022-11-09T08:20:57.649Z,7.88
2022-11-09T08:23:24.273Z,7.83
2022-11-09T08:25:53.219Z,7.91
2022-11-09T08:31:49.871Z,7.98
2022-11-09T08:45:38.387Z,8.16
2022-11-09T08:48:47.789Z,8.30
2022-11-09T08:51:16.699Z,8.43
2022-11-09T08:53:43.627Z,8.34
2022-11-09T08:56:18.404Z,8.26
2022-11-09T08:58:48.551Z,8.38
2022-11-09T09:01:17.210Z,8.48
2022-11-09T09:03:46.818Z,8.29
2022-11-09T09:06:13.263Z,8.25
2022-11-09T09:08:42.068Z,8.37
2022-11-09T09:11:11.074Z,8.44
2022-11-09T09:13:43.372Z,8.52
2022-11-09T09:16:14.948Z,8.68
2022-11-09T09:18:41.877Z,8.68
2022-11-09T09:21:10.316Z,8.73
2022-11-09T09:23:41.793Z,8.77
2022-11-09T09:26:09.643Z,8.81
2022-11-09T09:28:38.992Z,8.69
2022-11-09T09:31:05.548Z,8.86
2022-11-09T09:33:40.036Z,8.79
2022-11-09T09:36:06.912Z,8.86
2022-11-09T09:38:36.563Z,8.73
2022-11-09T09:41:25.550Z,8.94
2022-11-09T09:43:58.080Z,8.77
2022-11-09T09:46:38.579Z,8.93
2022-11-09T09:49:19.947Z,8.82
2022-11-09T09:52:02.472Z,8.88
2022-11-09T09:54:37.243Z,9.00
2022-11-09T09:57:59.152Z,9.12
2022-11-09T10:00:28.280Z,9.00
2022-11-09T10:03:01.059Z,8.84
2022-11-09T10:05:44.837Z,8.96
2022-11-09T10:08:23.338Z,8.76
2022-11-09T10:11:25.181Z,8.81
2022-11-09T10:14:09.737Z,8.73
2022-11-09T10:16:57.320Z,8.96
2022-11-09T10:19:26.113Z,9.09
2022-11-09T10:22:49.375Z,9.20
2022-11-09T10:25:43.334Z,9.29
2022-11-09T10:28:17.610Z,9.34
2022-11-09T10:31:05.348Z,9.30
2022-11-09T10:33:32.047Z,9.24
2022-11-09T10:36:08.233Z,9.21
2022-11-09T10:38:46.625Z,9.06
2022-11-09T10:41:23.685Z,9.17
2022-11-09T10:43:50.288Z,9.19
2022-11-09T10:46:21.567Z,9.22
2022-11-09T10:48:48.221Z,9.11
2022-11-09T10:51:35.880Z,9.18
2022-11-09T10:54:18.422Z,9.16
2022-11-09T10:57:05.973Z,9.07
2022-11-09T10:59:56.273Z,9.08
2022-11-09T11:02:29.917Z,9.07
2022-11-09T11:05:07.966Z,9.17
2022-11-09T11:07:35.603Z,9.15
2022-11-09T11:10:17.335Z,9.06
2022-11-09T11:12:59.618Z,9.20
2022-11-09T11:15:34.253Z,9.22
2022-11-09T11:18:03.641Z,9.27
2022-11-09T11:20:33.296Z,9.30
2022-11-09T11:23:12.826Z,9.22
2022-11-09T11:26:13.201Z,9.40
2022-11-09T11:28:45.366Z,9.51
2022-11-09T11:31:17.815Z,9.51
2022-11-09T11:33:47.415Z,9.43
2022-11-09T11:37:22.036Z,9.54
2022-11-09T11:40:08.002Z,9.48
2022-11-09T11:42:44.982Z,9.35
2022-11-09T11:45:39.052Z,9.20
2022-11-09T11:48:23.993Z,9.33
2022-11-09T11:51:06.874Z,9.24
2022-11-09T11:53:58.202Z,9.34
2022-11-09T11:56:43.211Z,9.22
2022-11-09T11:59:38.446Z,9.40
2022-11-09T12:02:36.359Z,9.50
2022-11-09T12:12:35.443Z,9.49
2022-11-09T12:15:24.129Z,9.68
2022-11-09T12:18:04.271Z,9.41
2022-11-09T12:20:56.243Z,9.32
2022-11-09T12:23:53.530Z,9.41
2022-11-09T12:26:26.112Z,9.20
2022-11-09T12:28:52.691Z,9.30
2022-11-09T12:32:00.886Z,9.19
2022-11-09T12:37:53.951Z,9.74
2022-11-09T12:40:41.463Z,9.64
2022-11-09T12:43:28.091Z,9.60
2022-11-09T12:45:55.204Z,9.45
2022-11-09T12:48:46.641Z,9.57
2022-11-09T12:51:19.632Z,9.54
2022-11-09T12:53:46.235Z,9.44
2022-11-09T12:56:22.982Z,9.38
2022-11-09T12:58:49.617Z,9.31
2022-11-09T13:01:34.515Z,9.23
2022-11-09T13:04:05.596Z,9.39
2022-11-09T13:06:33.862Z,9.46
2022-11-09T13:09:02.771Z,9.60
2022-11-09T13:11:41.738Z,9.59
2022-11-09T13:14:23.497Z,9.52
2022-11-09T13:16:54.312Z,9.50
2022-11-09T13:19:38.357Z,9.68
2022-11-09T13:22:07.998Z,9.46
2022-11-09T13:24:59.792Z,9.50
2022-11-09T13:27:46.400Z,9.56
2022-11-09T13:30:28.416Z,9.45
2022-11-09T13:33:07.079Z,9.27
2022-11-09T13:35:42.985Z,9.23
2022-11-09T13:38:24.409Z,9.27
2022-11-09T13:40:53.842Z,9.31
2022-11-09T13:43:26.325Z,9.35
2022-11-09T13:45:56.027Z,9.39
2022-11-09T13:48:31.483Z,9.48
2022-11-09T13:51:01.431Z,9.45
2022-11-09T13:54:06.630Z,9.65
2022-11-09T13:56:41.040Z,9.55
2022-11-09T13:59:29.368Z,9.51
2022-11-09T14:02:00.328Z,9.46
2022-11-09T14:04:41.276Z,9.53
2022-11-09T14:07:17.348Z,9.60
2022-11-09T14:10:08.851Z,9.61
2022-11-09T14:13:20.941Z,9.81
2022-11-09T14:15:56.568Z,9.79
2022-11-09T14:18:40.462Z,9.72
2022-11-09T14:21:31.254Z,9.80
2022-11-09T14:24:47.042Z,9.69
2022-11-09T14:27:19.470Z,9.41
2022-11-09T14:29:52.722Z,9.51
2022-11-09T14:32:27.583Z,9.51
2022-11-09T14:35:10.355Z,9.42
2022-11-09T14:37:46.167Z,9.26
2022-11-09T14:40:26.205Z,9.45
2022-11-09T14:43:03.667Z,9.43
2022-11-09T14:45:32.298Z,9.67
2022-11-09T14:48:04.802Z,9.55
2022-11-09T14:50:36.919Z,9.38
2022-11-09T14:53:07.087Z,9.39
2022-11-09T14:55:39.803Z,9.60
2022-11-09T14:58:14.176Z,9.60
2022-11-09T15:00:46.186Z,9.71
2022-11-09T15:03:42.279Z,9.70
2022-11-09T15:06:15.035Z,9.63
2022-11-09T15:09:07.503Z,9.50
2022-11-09T15:11:43.010Z,9.35
2022-11-09T15:14:30.341Z,9.40
2022-11-09T15:17:29.529Z,9.29
2022-11-09T15:20:07.895Z,9.33
2022-11-09T15:22:42.715Z,9.21
2022-11-09T15:25:53.304Z,9.36
2022-11-09T15:28:24.618Z,9.31
2022-11-09T15:30:54.141Z,9.39
2022-11-09T15:33:39.972Z,9.40
2022-11-09T15:36:21.606Z,9.35
2022-11-09T15:39:09.062Z,9.41
2022-11-09T15:41:37.084Z,9.33
2022-11-09T15:44:07.463Z,9.43
2022-11-09T15:46:40.173Z,9.31
2022-11-09T15:49:13.816Z,9.43
2022-11-09T15:51:43.269Z,9.32
2022-11-09T15:54:12.086Z,9.38
2022-11-09T15:56:39.177Z,9.36
2022-11-09T15:59:06.535Z,9.44
2022-11-09T16:01:33.086Z,9.35
2022-11-09T16:04:02.099Z,9.33
2022-11-09T16:06:29.226Z,9.32
2022-11-09T16:08:55.847Z,9.26
2022-11-09T16:11:27.254Z,9.30
2022-11-09T16:13:58.551Z,9.42
2022-11-09T16:16:25.411Z,9.51
2022-11-09T16:18:52.015Z,9.33
2022-11-09T16:21:18.732Z,9.48
2022-11-09T16:23:45.401Z,9.38
2022-11-09T16:26:17.349Z,9.42
2022-11-09T16:28:47.853Z,9.60
2022-11-09T16:31:14.594Z,9.51
2022-11-09T16:33:41.297Z,9.61
2022-11-09T16:36:21.641Z,9.78
2022-11-09T16:38:51.680Z,9.86
2022-11-09T16:41:21.711Z,9.87
2022-11-09T16:43:54.675Z,9.72
2022-11-09T16:46:26.573Z,9.59
2022-11-09T16:48:55.843Z,9.70
2022-11-09T16:51:22.402Z,9.82
2022-11-09T16:53:51.215Z,9.80
2022-11-09T16:56:17.780Z,9.91
2022-11-09T16:58:44.481Z,9.72
2022-11-09T17:01:12.729Z,9.64
2022-11-09T17:03:40.165Z,9.63
2022-11-09T17:06:11.340Z,9.80
2022-11-09T17:08:41.556Z,9.69
2022-11-09T17:11:09.976Z,9.80
2022-11-09T17:13:39.477Z,9.89
2022-11-09T17:16:09.078Z,9.94
2022-11-09T17:18:37.745Z,10.04
2022-11-09T17:21:12.035Z,9.97
2022-11-09T17:23:39.205Z,10.12
2022-11-09T17:26:10.073Z,10.12
2022-11-09T17:28:42.685Z,10.06
2022-11-09T17:31:17.574Z,10.03
2022-11-09T17:33:46.850Z,9.86
2022-11-09T17:36:41.524Z,10.01
2022-11-09T17:39:09.776Z,9.96
2022-11-09T17:41:42.677Z,9.95
2022-11-09T17:44:11.642Z,10.09
2022-11-09T17:46:38.282Z,9.85
2022-11-09T17:49:09.721Z,9.84
2022-11-09T17:51:37.805Z,9.89
2022-11-09T17:54:04.756Z,9.99
2022-11-09T17:56:36.598Z,9.95
2022-11-09T17:59:04.979Z,10.05
2022-11-09T18:01:41.082Z,9.82
2022-11-09T18:04:12.268Z,10.04
2022-11-09T18:06:41.238Z,10.01
2022-11-09T18:09:39.822Z,10.03
2022-11-09T18:11:57.775Z,10.16
2022-11-09T18:14:24.530Z,9.59
2022-11-09T18:16:51.217Z,9.49
2022-11-09T18:19:17.907Z,9.67
2022-11-09T18:21:45.806Z,9.83
2022-11-09T18:24:15.266Z,10.04
2022-11-09T18:26:44.177Z,9.82
2022-11-09T18:29:10.701Z,9.67
2022-11-09T18:31:39.282Z,9.74
2022-11-09T18:34:05.784Z,9.96
2022-11-09T18:36:34.533Z,9.92
2022-11-09T18:39:03.780Z,9.79
2022-11-09T18:41:33.068Z,10.05
2022-11-09T18:43:59.620Z,10.15
2022-11-09T18:46:31.052Z,10.22
2022-11-09T18:49:02.158Z,10.12
2022-11-09T18:51:30.923Z,10.23
2022-11-09T18:54:02.265Z,10.05
2022-11-09T18:56:31.093Z,10.21
2022-11-09T18:58:58.006Z,9.86
2022-11-09T19:01:25.782Z,9.98
2022-11-09T19:03:57.985Z,10.04
2022-11-09T19:06:26.830Z,10.26
2022-11-09T19:09:11.934Z,10.11
2022-11-09T19:11:38.799Z,10.22
2022-11-09T19:14:07.553Z,10.37
2022-11-09T19:16:36.387Z,10.59
2022-11-09T19:19:05.349Z,10.15
2022-11-09T19:21:42.760Z,10.42
2022-11-09T19:24:15.920Z,10.53
2022-11-09T19:26:42.568Z,10.23
2022-11-09T19:29:10.832Z,10.21
2022-11-09T19:31:38.386Z,10.24
2022-11-09T19:34:05.058Z,10.22
2022-11-09T19:36:33.656Z,10.41
2022-11-09T19:39:03.278Z,10.34
2022-11-09T19:41:32.926Z,9.92
2022-11-09T19:44:01.975Z,10.09
2022-11-09T19:46:33.325Z,10.17
2022-11-09T19:49:03.783Z,10.12
2022-11-09T19:51:32.983Z,10.18
2022-11-09T19:54:03.326Z,10.19
2022-11-09T19:56:37.464Z,10.12
2022-11-09T19:59:04.831Z,9.74
2022-11-09T20:01:31.769Z,9.76
2022-11-09T20:04:09.056Z,9.64
2022-11-09T20:06:40.871Z,9.66
2022-11-09T20:09:12.552Z,9.63
2022-11-09T20:11:57.376Z,9.93
2022-11-09T20:14:24.501Z,9.56
2022-11-09T20:16:51.056Z,9.43
2022-11-09T20:19:21.688Z,9.36
2022-11-09T20:21:50.762Z,9.41
2022-11-09T20:24:17.322Z,9.38
2022-11-09T20:26:48.690Z,9.49
2022-11-09T20:29:15.255Z,9.59
2022-11-09T20:31:42.205Z,9.73
2022-11-09T20:34:11.327Z,9.60
2022-11-09T20:36:38.140Z,9.83
2022-11-09T20:39:05.039Z,9.95
2022-11-09T20:41:36.634Z,10.02
2022-11-09T20:44:03.339Z,9.88
2022-11-09T20:46:36.247Z,9.92
2022-11-09T20:49:03.864Z,9.96
2022-11-09T20:51:33.039Z,9.97
2022-11-09T20:54:06.975Z,9.56
2022-11-09T20:56:37.280Z,9.45
2022-11-09T20:59:03.971Z,9.63
2022-11-09T21:01:33.133Z,9.50
2022-11-09T21:03:59.966Z,9.49
2022-11-09T21:06:31.426Z,9.35
2022-11-09T21:08:58.578Z,9.31
2022-11-09T21:12:05.064Z,9.22
2022-11-09T21:14:36.909Z,9.25
2022-11-09T21:17:03.446Z,9.13
2022-11-09T21:19:30.023Z,9.43
2022-11-09T21:21:57.253Z,9.67
2022-11-09T21:24:45.016Z,9.67
2022-11-09T21:27:47.854Z,9.41
2022-11-09T21:30:18.861Z,9.46
2022-11-09T21:32:45.742Z,9.29
2022-11-09T21:35:14.995Z,9.20
2022-11-09T21:37:41.847Z,9.28
2022-11-09T21:40:11.870Z,9.20
2022-11-09T21:42:38.545Z,9.19
2022-11-09T21:45:07.908Z,9.40
2022-11-09T21:47:40.020Z,9.53
2022-11-09T21:50:12.156Z,9.45
2022-11-09T21:52:44.030Z,9.18
2022-11-09T21:55:10.624Z,9.15
2022-11-09T21:57:37.314Z,9.15
2022-11-09T22:00:09.215Z,9.26
2022-11-09T22:02:36.038Z,9.22
2022-11-09T22:05:02.685Z,9.36
2022-11-09T22:07:31.417Z,9.17
2022-11-09T22:10:15.692Z,9.20
2022-11-09T22:13:00.612Z,9.51
2022-11-09T22:15:45.732Z,9.67
2022-11-09T22:18:32.199Z,9.73
2022-11-09T22:20:58.710Z,9.43
2022-11-09T22:23:25.223Z,9.55
2022-11-09T22:25:52.069Z,9.35
2022-11-09T22:28:18.558Z,9.19
2022-11-09T22:30:48.883Z,9.36
2022-11-09T22:33:15.676Z,9.20
2022-11-09T22:35:42.171Z,9.22
2022-11-09T22:38:11.243Z,9.17
2022-11-09T22:40:41.181Z,9.02
2022-11-09T22:43:07.700Z,9.19
2022-11-09T22:45:34.336Z,8.99
2022-11-09T22:48:00.995Z,9.09
2022-11-09T22:50:27.582Z,9.21
2022-11-09T22:53:02.304Z,9.50
2022-11-09T22:55:30.051Z,9.68
2022-11-09T22:57:57.265Z,9.61
2022-11-09T23:00:24.196Z,9.57
2022-11-09T23:02:50.810Z,9.58
2022-11-09T23:05:17.323Z,9.15
2022-11-09T23:07:43.918Z,9.46
2022-11-09T23:10:12.549Z,9.55
2022-11-09T23:12:39.046Z,9.73
2022-11-09T23:15:13.171Z,9.96
2022-11-09T23:17:58.211Z,10.07
2022-11-09T23:20:31.215Z,10.16
2022-11-09T23:23:06.040Z,10.20
2022-11-09T23:25:51.190Z,10.26
2022-11-09T23:28:20.627Z,10.30
2022-11-09T23:30:47.219Z,10.20
2022-11-09T23:33:14.184Z,10.22
2022-11-09T23:35:43.190Z,10.35
2022-11-09T23:38:11.956Z,10.29
2022-11-09T23:40:40.951Z,10.30
2022-11-09T23:43:14.115Z,10.23
2022-11-09T23:45:41.103Z,10.30
2022-11-09T23:48:12.426Z,10.34
2022-11-09T23:50:38.894Z,10.28
2022-11-09T23:53:05.443Z,10.12
2022-11-09T23:55:32.008Z,10.17
2022-11-09T23:58:01.209Z,10.27
